sensor_id;sensor_type;location;lat;lon;timestamp;P1;durP1;ratioP1;P2;durP2;ratioP2
52166;SDS011;38149;52.666;6.428;2023-04-06T00:02:14;0.20;;;0.20;;
52166;SDS011;38149;52.666;6.428;2023-04-06T00:04:40;0.20;;;0.20;;
52166;SDS011;38149;52.666;6.428;2023-04-06T00:07:06;0.30;;;0.30;;
52166;SDS011;38149;52.666;6.428;2023-04-06T00:09:32;0.20;;;0.20;;
52166;SDS011;38149;52.666;6.428;2023-04-06T00:11:58;0.20;;;0.20;;
52166;SDS011;38149;52.666;6.428;2023-04-06T00:14:25;0.20;;;0.20;;
52166;SDS011;38149;52.666;6.428;2023-04-06T00:16:51;0.20;;;0.20;;
52166;SDS011;38149;52.666;6.428;2023-04-06T00:19:17;0.20;;;0.20;;
52166;SDS011;38149;52.666;6.428;2023-04-06T00:21:43;0.20;;;0.20;;
52166;SDS011;38149;52.666;6.428;2023-04-06T00:24:09;0.20;;;0.20;;
52166;SDS011;38149;52.666;6.428;2023-04-06T00:26:35;0.20;;;0.20;;
52166;SDS011;38149;52.666;6.428;2023-04-06T00:29:01;0.20;;;0.20;;
52166;SDS011;38149;52.666;6.428;2023-04-06T00:31:29;0.25;;;0.25;;
52166;SDS011;38149;52.666;6.428;2023-04-06T00:33:56;0.20;;;0.20;;
52166;SDS011;38149;52.666;6.428;2023-04-06T00:36:22;0.20;;;0.20;;
52166;SDS011;38149;52.666;6.428;2023-04-06T00:38:48;0.20;;;0.20;;
52166;SDS011;38149;52.666;6.428;2023-04-06T00:41:14;0.20;;;0.20;;
52166;SDS011;38149;52.666;6.428;2023-04-06T00:43:40;0.20;;;0.20;;
52166;SDS011;38149;52.666;6.428;2023-04-06T00:46:06;0.20;;;0.20;;
52166;SDS011;38149;52.666;6.428;2023-04-06T00:48:33;0.20;;;0.20;;
52166;SDS011;38149;52.666;6.428;2023-04-06T00:51:00;0.20;;;0.20;;
52166;SDS011;38149;52.666;6.428;2023-04-06T00:53:26;0.20;;;0.20;;
52166;SDS011;38149;52.666;6.428;2023-04-06T00:55:52;0.20;;;0.20;;
52166;SDS011;38149;52.666;6.428;2023-04-06T00:58:18;0.20;;;0.20;;
52166;SDS011;38149;52.666;6.428;2023-04-06T01:00:45;0.22;;;0.22;;
52166;SDS011;38149;52.666;6.428;2023-04-06T01:03:11;0.22;;;0.22;;
52166;SDS011;38149;52.666;6.428;2023-04-06T01:05:37;0.20;;;0.20;;
52166;SDS011;38149;52.666;6.428;2023-04-06T01:08:05;0.28;;;0.28;;
52166;SDS011;38149;52.666;6.428;2023-04-06T01:10:32;0.30;;;0.30;;
52166;SDS011;38149;52.666;6.428;2023-04-06T01:12:58;0.30;;;0.30;;
52166;SDS011;38149;52.666;6.428;2023-04-06T01:15:24;0.30;;;0.30;;
52166;SDS011;38149;52.666;6.428;2023-04-06T01:17:51;0.20;;;0.20;;
52166;SDS011;38149;52.666;6.428;2023-04-06T01:20:18;0.20;;;0.20;;
52166;SDS011;38149;52.666;6.428;2023-04-06T01:22:44;0.20;;;0.20;;
52166;SDS011;38149;52.666;6.428;2023-04-06T01:25:10;0.28;;;0.28;;
52166;SDS011;38149;52.666;6.428;2023-04-06T01:27:36;0.30;;;0.30;;
52166;SDS011;38149;52.666;6.428;2023-04-06T01:30:02;0.30;;;0.30;;
52166;SDS011;38149;52.666;6.428;2023-04-06T01:32:32;0.30;;;0.30;;
52166;SDS011;38149;52.666;6.428;2023-04-06T01:34:58;0.30;;;0.30;;
52166;SDS011;38149;52.666;6.428;2023-04-06T01:37:25;0.30;;;0.30;;
52166;SDS011;38149;52.666;6.428;2023-04-06T01:39:51;0.30;;;0.30;;
52166;SDS011;38149;52.666;6.428;2023-04-06T01:42:18;0.30;;;0.30;;
52166;SDS011;38149;52.666;6.428;2023-04-06T01:44:44;0.30;;;0.30;;
52166;SDS011;38149;52.666;6.428;2023-04-06T01:47:10;0.30;;;0.30;;
52166;SDS011;38149;52.666;6.428;2023-04-06T01:49:36;0.30;;;0.30;;
52166;SDS011;38149;52.666;6.428;2023-04-06T01:52:02;0.30;;;0.30;;
52166;SDS011;38149;52.666;6.428;2023-04-06T01:54:28;0.25;;;0.25;;
52166;SDS011;38149;52.666;6.428;2023-04-06T01:56:54;0.30;;;0.30;;
52166;SDS011;38149;52.666;6.428;2023-04-06T01:59:20;0.20;;;0.20;;
52166;SDS011;38149;52.666;6.428;2023-04-06T02:01:46;0.30;;;0.30;;
52166;SDS011;38149;52.666;6.428;2023-04-06T02:04:12;0.30;;;0.30;;
52166;SDS011;38149;52.666;6.428;2023-04-06T02:06:39;0.30;;;0.30;;
52166;SDS011;38149;52.666;6.428;2023-04-06T02:09:05;0.30;;;0.30;;
52166;SDS011;38149;52.666;6.428;2023-04-06T02:11:31;0.30;;;0.30;;
52166;SDS011;38149;52.666;6.428;2023-04-06T02:13:57;0.28;;;0.28;;
52166;SDS011;38149;52.666;6.428;2023-04-06T02:16:25;0.30;;;0.30;;
52166;SDS011;38149;52.666;6.428;2023-04-06T02:18:51;0.20;;;0.20;;
52166;SDS011;38149;52.666;6.428;2023-04-06T02:21:17;0.30;;;0.30;;
52166;SDS011;38149;52.666;6.428;2023-04-06T02:23:45;0.30;;;0.30;;
52166;SDS011;38149;52.666;6.428;2023-04-06T02:26:12;0.30;;;0.30;;
52166;SDS011;38149;52.666;6.428;2023-04-06T02:28:38;0.30;;;0.30;;
52166;SDS011;38149;52.666;6.428;2023-04-06T02:31:04;0.30;;;0.30;;
52166;SDS011;38149;52.666;6.428;2023-04-06T02:33:31;0.30;;;0.30;;
52166;SDS011;38149;52.666;6.428;2023-04-06T02:35:57;0.30;;;0.30;;
52166;SDS011;38149;52.666;6.428;2023-04-06T02:38:23;0.30;;;0.30;;
52166;SDS011;38149;52.666;6.428;2023-04-06T02:40:49;0.30;;;0.30;;
52166;SDS011;38149;52.666;6.428;2023-04-06T02:43:15;0.30;;;0.30;;
52166;SDS011;38149;52.666;6.428;2023-04-06T02:45:42;0.30;;;0.30;;
52166;SDS011;38149;52.666;6.428;2023-04-06T02:48:08;0.30;;;0.30;;
52166;SDS011;38149;52.666;6.428;2023-04-06T02:50:34;0.30;;;0.30;;
52166;SDS011;38149;52.666;6.428;2023-04-06T02:53:00;0.30;;;0.30;;
52166;SDS011;38149;52.666;6.428;2023-04-06T02:55:26;0.20;;;0.20;;
52166;SDS011;38149;52.666;6.428;2023-04-06T02:57:52;0.30;;;0.30;;
52166;SDS011;38149;52.666;6.428;2023-04-06T03:00:18;0.30;;;0.30;;
52166;SDS011;38149;52.666;6.428;2023-04-06T03:02:45;0.30;;;0.30;;
52166;SDS011;38149;52.666;6.428;2023-04-06T03:05:11;0.30;;;0.30;;
52166;SDS011;38149;52.666;6.428;2023-04-06T03:07:37;0.20;;;0.20;;
52166;SDS011;38149;52.666;6.428;2023-04-06T03:10:04;0.30;;;0.30;;
52166;SDS011;38149;52.666;6.428;2023-04-06T03:12:36;0.20;;;0.20;;
52166;SDS011;38149;52.666;6.428;2023-04-06T03:15:02;0.20;;;0.20;;
52166;SDS011;38149;52.666;6.428;2023-04-06T03:17:29;0.30;;;0.30;;
52166;SDS011;38149;52.666;6.428;2023-04-06T03:19:55;0.30;;;0.30;;
52166;SDS011;38149;52.666;6.428;2023-04-06T03:22:21;0.30;;;0.30;;
52166;SDS011;38149;52.666;6.428;2023-04-06T03:24:47;0.30;;;0.30;;
52166;SDS011;38149;52.666;6.428;2023-04-06T03:27:13;0.30;;;0.30;;
52166;SDS011;38149;52.666;6.428;2023-04-06T03:29:39;0.30;;;0.30;;
52166;SDS011;38149;52.666;6.428;2023-04-06T03:32:06;0.30;;;0.30;;
52166;SDS011;38149;52.666;6.428;2023-04-06T03:34:32;0.30;;;0.30;;
52166;SDS011;38149;52.666;6.428;2023-04-06T03:36:58;0.30;;;0.30;;
52166;SDS011;38149;52.666;6.428;2023-04-06T03:39:24;0.30;;;0.30;;
52166;SDS011;38149;52.666;6.428;2023-04-06T03:41:50;0.30;;;0.30;;
52166;SDS011;38149;52.666;6.428;2023-04-06T03:44:16;0.30;;;0.30;;
52166;SDS011;38149;52.666;6.428;2023-04-06T03:46:42;0.30;;;0.30;;
52166;SDS011;38149;52.666;6.428;2023-04-06T03:49:08;0.25;;;0.25;;
52166;SDS011;38149;52.666;6.428;2023-04-06T03:51:35;0.30;;;0.30;;
52166;SDS011;38149;52.666;6.428;2023-04-06T03:54:01;0.30;;;0.30;;
52166;SDS011;38149;52.666;6.428;2023-04-06T03:56:27;0.30;;;0.30;;
52166;SDS011;38149;52.666;6.428;2023-04-06T03:58:53;0.30;;;0.30;;
52166;SDS011;38149;52.666;6.428;2023-04-06T04:01:19;0.30;;;0.30;;
52166;SDS011;38149;52.666;6.428;2023-04-06T04:03:45;0.30;;;0.30;;
52166;SDS011;38149;52.666;6.428;2023-04-06T04:06:11;0.30;;;0.30;;
52166;SDS011;38149;52.666;6.428;2023-04-06T04:08:37;0.30;;;0.30;;
52166;SDS011;38149;52.666;6.428;2023-04-06T04:11:03;0.30;;;0.30;;
52166;SDS011;38149;52.666;6.428;2023-04-06T04:13:29;0.30;;;0.30;;
52166;SDS011;38149;52.666;6.428;2023-04-06T04:15:56;0.30;;;0.30;;
52166;SDS011;38149;52.666;6.428;2023-04-06T04:18:22;0.30;;;0.30;;
52166;SDS011;38149;52.666;6.428;2023-04-06T04:20:48;0.30;;;0.30;;
52166;SDS011;38149;52.666;6.428;2023-04-06T04:23:14;0.30;;;0.30;;
52166;SDS011;38149;52.666;6.428;2023-04-06T04:25:40;0.20;;;0.20;;
52166;SDS011;38149;52.666;6.428;2023-04-06T04:28:06;0.30;;;0.30;;
52166;SDS011;38149;52.666;6.428;2023-04-06T04:30:32;0.30;;;0.30;;
52166;SDS011;38149;52.666;6.428;2023-04-06T04:32:58;0.30;;;0.30;;
52166;SDS011;38149;52.666;6.428;2023-04-06T04:35:26;0.30;;;0.30;;
52166;SDS011;38149;52.666;6.428;2023-04-06T04:37:52;0.30;;;0.30;;
52166;SDS011;38149;52.666;6.428;2023-04-06T04:40:18;0.30;;;0.30;;
52166;SDS011;38149;52.666;6.428;2023-04-06T04:42:44;0.30;;;0.30;;
52166;SDS011;38149;52.666;6.428;2023-04-06T04:45:11;0.30;;;0.30;;
52166;SDS011;38149;52.666;6.428;2023-04-06T04:47:37;0.30;;;0.30;;
52166;SDS011;38149;52.666;6.428;2023-04-06T04:50:04;0.30;;;0.30;;
52166;SDS011;38149;52.666;6.428;2023-04-06T04:52:30;0.30;;;0.30;;
52166;SDS011;38149;52.666;6.428;2023-04-06T04:54:56;0.30;;;0.30;;
52166;SDS011;38149;52.666;6.428;2023-04-06T04:57:22;0.30;;;0.30;;
52166;SDS011;38149;52.666;6.428;2023-04-06T04:59:48;0.30;;;0.30;;
52166;SDS011;38149;52.666;6.428;2023-04-06T05:02:15;0.30;;;0.30;;
52166;SDS011;38149;52.666;6.428;2023-04-06T05:04:42;0.30;;;0.30;;
52166;SDS011;38149;52.666;6.428;2023-04-06T05:07:08;0.30;;;0.30;;
52166;SDS011;38149;52.666;6.428;2023-04-06T05:09:34;0.30;;;0.30;;
52166;SDS011;38149;52.666;6.428;2023-04-06T05:12:01;0.30;;;0.30;;
52166;SDS011;38149;52.666;6.428;2023-04-06T05:14:27;0.30;;;0.30;;
52166;SDS011;38149;52.666;6.428;2023-04-06T05:16:53;0.30;;;0.30;;
52166;SDS011;38149;52.666;6.428;2023-04-06T05:19:19;0.30;;;0.30;;
52166;SDS011;38149;52.666;6.428;2023-04-06T05:21:46;0.30;;;0.30;;
52166;SDS011;38149;52.666;6.428;2023-04-06T05:24:12;0.30;;;0.30;;
52166;SDS011;38149;52.666;6.428;2023-04-06T05:26:38;0.30;;;0.30;;
52166;SDS011;38149;52.666;6.428;2023-04-06T05:29:04;0.30;;;0.30;;
52166;SDS011;38149;52.666;6.428;2023-04-06T05:31:30;0.30;;;0.30;;
52166;SDS011;38149;52.666;6.428;2023-04-06T05:33:56;0.30;;;0.30;;
52166;SDS011;38149;52.666;6.428;2023-04-06T05:36:23;0.30;;;0.30;;
52166;SDS011;38149;52.666;6.428;2023-04-06T05:38:49;0.30;;;0.30;;
52166;SDS011;38149;52.666;6.428;2023-04-06T05:41:17;0.30;;;0.30;;
52166;SDS011;38149;52.666;6.428;2023-04-06T05:43:43;0.30;;;0.30;;
52166;SDS011;38149;52.666;6.428;2023-04-06T05:46:10;0.30;;;0.30;;
52166;SDS011;38149;52.666;6.428;2023-04-06T05:48:36;0.40;;;0.40;;
52166;SDS011;38149;52.666;6.428;2023-04-06T05:51:02;0.30;;;0.30;;
52166;SDS011;38149;52.666;6.428;2023-04-06T05:53:31;0.30;;;0.30;;
52166;SDS011;38149;52.666;6.428;2023-04-06T05:56:00;0.30;;;0.30;;
52166;SDS011;38149;52.666;6.428;2023-04-06T05:58:26;0.30;;;0.30;;
52166;SDS011;38149;52.666;6.428;2023-04-06T06:00:57;0.30;;;0.30;;
52166;SDS011;38149;52.666;6.428;2023-04-06T06:03:23;0.30;;;0.30;;
52166;SDS011;38149;52.666;6.428;2023-04-06T06:05:49;0.30;;;0.30;;
52166;SDS011;38149;52.666;6.428;2023-04-06T06:08:15;0.30;;;0.30;;
52166;SDS011;38149;52.666;6.428;2023-04-06T06:10:41;0.40;;;0.40;;
52166;SDS011;38149;52.666;6.428;2023-04-06T06:13:08;0.30;;;0.30;;
52166;SDS011;38149;52.666;6.428;2023-04-06T06:15:34;0.30;;;0.30;;
52166;SDS011;38149;52.666;6.428;2023-04-06T06:18:00;0.30;;;0.30;;
52166;SDS011;38149;52.666;6.428;2023-04-06T06:20:26;0.30;;;0.30;;
52166;SDS011;38149;52.666;6.428;2023-04-06T06:22:52;0.30;;;0.30;;
52166;SDS011;38149;52.666;6.428;2023-04-06T06:25:18;0.30;;;0.30;;
52166;SDS011;38149;52.666;6.428;2023-04-06T06:27:45;0.30;;;0.30;;
52166;SDS011;38149;52.666;6.428;2023-04-06T06:30:11;0.30;;;0.30;;
52166;SDS011;38149;52.666;6.428;2023-04-06T06:32:37;0.30;;;0.30;;
52166;SDS011;38149;52.666;6.428;2023-04-06T06:35:03;0.30;;;0.30;;
52166;SDS011;38149;52.666;6.428;2023-04-06T06:37:30;0.30;;;0.30;;
52166;SDS011;38149;52.666;6.428;2023-04-06T06:39:56;0.30;;;0.30;;
52166;SDS011;38149;52.666;6.428;2023-04-06T06:42:22;0.30;;;0.30;;
52166;SDS011;38149;52.666;6.428;2023-04-06T06:44:48;0.30;;;0.30;;
52166;SDS011;38149;52.666;6.428;2023-04-06T06:47:15;0.30;;;0.30;;
52166;SDS011;38149;52.666;6.428;2023-04-06T06:49:41;0.30;;;0.30;;
52166;SDS011;38149;52.666;6.428;2023-04-06T06:52:07;0.30;;;0.30;;
52166;SDS011;38149;52.666;6.428;2023-04-06T06:54:33;0.30;;;0.30;;
52166;SDS011;38149;52.666;6.428;2023-04-06T06:56:59;0.30;;;0.30;;
52166;SDS011;38149;52.666;6.428;2023-04-06T06:59:25;0.30;;;0.30;;
52166;SDS011;38149;52.666;6.428;2023-04-06T07:01:52;0.30;;;0.30;;
52166;SDS011;38149;52.666;6.428;2023-04-06T07:04:18;0.30;;;0.30;;
52166;SDS011;38149;52.666;6.428;2023-04-06T07:06:44;0.30;;;0.30;;
52166;SDS011;38149;52.666;6.428;2023-04-06T07:09:10;0.30;;;0.30;;
52166;SDS011;38149;52.666;6.428;2023-04-06T07:11:36;0.30;;;0.30;;
52166;SDS011;38149;52.666;6.428;2023-04-06T07:14:02;0.30;;;0.30;;
52166;SDS011;38149;52.666;6.428;2023-04-06T07:16:29;0.30;;;0.30;;
52166;SDS011;38149;52.666;6.428;2023-04-06T07:18:55;0.30;;;0.30;;
52166;SDS011;38149;52.666;6.428;2023-04-06T07:21:21;0.30;;;0.30;;
52166;SDS011;38149;52.666;6.428;2023-04-06T07:23:47;0.30;;;0.30;;
52166;SDS011;38149;52.666;6.428;2023-04-06T07:26:13;0.30;;;0.30;;
52166;SDS011;38149;52.666;6.428;2023-04-06T07:28:40;0.30;;;0.30;;
52166;SDS011;38149;52.666;6.428;2023-04-06T07:31:06;0.30;;;0.30;;
52166;SDS011;38149;52.666;6.428;2023-04-06T07:33:32;0.30;;;0.30;;
52166;SDS011;38149;52.666;6.428;2023-04-06T07:36:01;0.30;;;0.30;;
52166;SDS011;38149;52.666;6.428;2023-04-06T07:38:27;0.30;;;0.30;;
52166;SDS011;38149;52.666;6.428;2023-04-06T07:40:53;0.30;;;0.30;;
52166;SDS011;38149;52.666;6.428;2023-04-06T07:43:19;0.30;;;0.30;;
52166;SDS011;38149;52.666;6.428;2023-04-06T07:45:45;0.30;;;0.30;;
52166;SDS011;38149;52.666;6.428;2023-04-06T07:48:11;0.30;;;0.30;;
52166;SDS011;38149;52.666;6.428;2023-04-06T07:50:37;0.30;;;0.30;;
52166;SDS011;38149;52.666;6.428;2023-04-06T07:53:03;0.20;;;0.20;;
52166;SDS011;38149;52.666;6.428;2023-04-06T07:55:29;0.30;;;0.30;;
52166;SDS011;38149;52.666;6.428;2023-04-06T07:57:55;0.30;;;0.30;;
52166;SDS011;38149;52.666;6.428;2023-04-06T08:00:22;0.22;;;0.22;;
52166;SDS011;38149;52.666;6.428;2023-04-06T08:02:48;0.30;;;0.30;;
52166;SDS011;38149;52.666;6.428;2023-04-06T08:05:14;0.30;;;0.30;;
52166;SDS011;38149;52.666;6.428;2023-04-06T08:07:40;0.30;;;0.30;;
52166;SDS011;38149;52.666;6.428;2023-04-06T08:10:07;0.20;;;0.20;;
52166;SDS011;38149;52.666;6.428;2023-04-06T08:12:34;0.30;;;0.30;;
52166;SDS011;38149;52.666;6.428;2023-04-06T08:15:00;0.28;;;0.28;;
52166;SDS011;38149;52.666;6.428;2023-04-06T08:17:27;0.30;;;0.30;;
52166;SDS011;38149;52.666;6.428;2023-04-06T08:19:55;0.30;;;0.30;;
52166;SDS011;38149;52.666;6.428;2023-04-06T08:22:21;0.30;;;0.30;;
52166;SDS011;38149;52.666;6.428;2023-04-06T08:24:47;0.30;;;0.30;;
52166;SDS011;38149;52.666;6.428;2023-04-06T08:27:13;0.30;;;0.30;;
52166;SDS011;38149;52.666;6.428;2023-04-06T08:29:40;0.30;;;0.30;;
52166;SDS011;38149;52.666;6.428;2023-04-06T08:32:06;0.20;;;0.20;;
52166;SDS011;38149;52.666;6.428;2023-04-06T08:34:32;0.20;;;0.20;;
52166;SDS011;38149;52.666;6.428;2023-04-06T08:36:59;0.20;;;0.20;;
52166;SDS011;38149;52.666;6.428;2023-04-06T08:39:25;0.30;;;0.30;;
52166;SDS011;38149;52.666;6.428;2023-04-06T08:41:52;0.30;;;0.30;;
52166;SDS011;38149;52.666;6.428;2023-04-06T08:44:23;0.30;;;0.30;;
52166;SDS011;38149;52.666;6.428;2023-04-06T08:46:49;0.30;;;0.30;;
52166;SDS011;38149;52.666;6.428;2023-04-06T08:49:17;0.30;;;0.30;;
52166;SDS011;38149;52.666;6.428;2023-04-06T08:51:44;0.20;;;0.20;;
52166;SDS011;38149;52.666;6.428;2023-04-06T08:54:10;0.20;;;0.20;;
52166;SDS011;38149;52.666;6.428;2023-04-06T08:56:39;0.20;;;0.20;;
52166;SDS011;38149;52.666;6.428;2023-04-06T08:59:06;0.20;;;0.20;;
52166;SDS011;38149;52.666;6.428;2023-04-06T09:01:33;0.20;;;0.20;;
52166;SDS011;38149;52.666;6.428;2023-04-06T09:04:01;0.20;;;0.20;;
52166;SDS011;38149;52.666;6.428;2023-04-06T09:06:30;0.30;;;0.30;;
52166;SDS011;38149;52.666;6.428;2023-04-06T09:08:57;0.20;;;0.20;;
52166;SDS011;38149;52.666;6.428;2023-04-06T09:11:23;0.20;;;0.20;;
52166;SDS011;38149;52.666;6.428;2023-04-06T09:13:50;0.20;;;0.20;;
52166;SDS011;38149;52.666;6.428;2023-04-06T09:16:17;0.20;;;0.20;;
52166;SDS011;38149;52.666;6.428;2023-04-06T09:18:44;0.20;;;0.20;;
52166;SDS011;38149;52.666;6.428;2023-04-06T09:21:10;0.20;;;0.20;;
52166;SDS011;38149;52.666;6.428;2023-04-06T09:23:37;0.20;;;0.20;;
52166;SDS011;38149;52.666;6.428;2023-04-06T09:26:07;0.20;;;0.20;;
52166;SDS011;38149;52.666;6.428;2023-04-06T09:31:22;0.20;;;0.20;;
52166;SDS011;38149;52.666;6.428;2023-04-06T09:33:53;0.20;;;0.20;;
52166;SDS011;38149;52.666;6.428;2023-04-06T09:36:19;0.20;;;0.20;;
52166;SDS011;38149;52.666;6.428;2023-04-06T09:38:57;0.20;;;0.20;;
52166;SDS011;38149;52.666;6.428;2023-04-06T09:41:24;0.20;;;0.20;;
52166;SDS011;38149;52.666;6.428;2023-04-06T09:43:52;0.20;;;0.20;;
52166;SDS011;38149;52.666;6.428;2023-04-06T09:46:30;0.20;;;0.20;;
52166;SDS011;38149;52.666;6.428;2023-04-06T09:48:59;0.20;;;0.20;;
52166;SDS011;38149;52.666;6.428;2023-04-06T09:51:26;0.20;;;0.20;;
52166;SDS011;38149;52.666;6.428;2023-04-06T09:53:57;0.20;;;0.20;;
52166;SDS011;38149;52.666;6.428;2023-04-06T09:56:28;0.20;;;0.20;;
52166;SDS011;38149;52.666;6.428;2023-04-06T09:59:08;0.20;;;0.20;;
52166;SDS011;38149;52.666;6.428;2023-04-06T10:01:38;0.20;;;0.20;;
52166;SDS011;38149;52.666;6.428;2023-04-06T10:04:11;0.20;;;0.20;;
52166;SDS011;38149;52.666;6.428;2023-04-06T10:09:17;0.20;;;0.20;;
52166;SDS011;38149;52.666;6.428;2023-04-06T10:11:46;0.20;;;0.20;;
52166;SDS011;38149;52.666;6.428;2023-04-06T10:14:13;0.20;;;0.20;;
52166;SDS011;38149;52.666;6.428;2023-04-06T10:16:40;0.20;;;0.20;;
52166;SDS011;38149;52.666;6.428;2023-04-06T10:19:13;0.20;;;0.20;;
52166;SDS011;38149;52.666;6.428;2023-04-06T10:21:42;0.20;;;0.20;;
52166;SDS011;38149;52.666;6.428;2023-04-06T10:24:10;0.20;;;0.20;;
52166;SDS011;38149;52.666;6.428;2023-04-06T10:26:37;0.20;;;0.20;;
52166;SDS011;38149;52.666;6.428;2023-04-06T10:29:03;0.10;;;0.10;;
52166;SDS011;38149;52.666;6.428;2023-04-06T10:31:30;0.20;;;0.20;;
52166;SDS011;38149;52.666;6.428;2023-04-06T10:33:57;0.20;;;0.20;;
52166;SDS011;38149;52.666;6.428;2023-04-06T10:36:25;0.20;;;0.20;;
52166;SDS011;38149;52.666;6.428;2023-04-06T10:38:59;0.20;;;0.20;;
52166;SDS011;38149;52.666;6.428;2023-04-06T10:44:06;0.20;;;0.20;;
52166;SDS011;38149;52.666;6.428;2023-04-06T10:46:32;0.20;;;0.20;;
52166;SDS011;38149;52.666;6.428;2023-04-06T10:49:11;0.20;;;0.20;;
52166;SDS011;38149;52.666;6.428;2023-04-06T10:51:37;0.20;;;0.20;;
52166;SDS011;38149;52.666;6.428;2023-04-06T10:54:05;0.20;;;0.20;;
52166;SDS011;38149;52.666;6.428;2023-04-06T10:56:31;0.20;;;0.20;;
52166;SDS011;38149;52.666;6.428;2023-04-06T10:59:00;0.20;;;0.20;;
52166;SDS011;38149;52.666;6.428;2023-04-06T11:01:26;0.20;;;0.20;;
52166;SDS011;38149;52.666;6.428;2023-04-06T11:03:56;0.20;;;0.20;;
52166;SDS011;38149;52.666;6.428;2023-04-06T11:06:28;0.20;;;0.20;;
52166;SDS011;38149;52.666;6.428;2023-04-06T11:08:55;0.20;;;0.20;;
52166;SDS011;38149;52.666;6.428;2023-04-06T11:11:22;0.10;;;0.10;;
52166;SDS011;38149;52.666;6.428;2023-04-06T11:13:52;0.20;;;0.20;;
52166;SDS011;38149;52.666;6.428;2023-04-06T11:16:23;0.20;;;0.20;;
52166;SDS011;38149;52.666;6.428;2023-04-06T11:18:51;0.20;;;0.20;;
52166;SDS011;38149;52.666;6.428;2023-04-06T11:21:19;0.10;;;0.10;;
52166;SDS011;38149;52.666;6.428;2023-04-06T11:24:03;0.10;;;0.10;;
52166;SDS011;38149;52.666;6.428;2023-04-06T11:26:36;0.20;;;0.20;;
52166;SDS011;38149;52.666;6.428;2023-04-06T11:29:03;0.20;;;0.20;;
52166;SDS011;38149;52.666;6.428;2023-04-06T11:31:30;0.20;;;0.20;;
52166;SDS011;38149;52.666;6.428;2023-04-06T11:33:56;0.20;;;0.20;;
52166;SDS011;38149;52.666;6.428;2023-04-06T11:36:22;0.10;;;0.10;;
52166;SDS011;38149;52.666;6.428;2023-04-06T11:38:52;0.20;;;0.20;;
52166;SDS011;38149;52.666;6.428;2023-04-06T11:41:22;0.20;;;0.20;;
52166;SDS011;38149;52.666;6.428;2023-04-06T11:43:50;0.20;;;0.20;;
52166;SDS011;38149;52.666;6.428;2023-04-06T11:46:19;0.20;;;0.20;;
52166;SDS011;38149;52.666;6.428;2023-04-06T11:48:47;0.10;;;0.10;;
52166;SDS011;38149;52.666;6.428;2023-04-06T11:51:20;0.10;;;0.10;;
52166;SDS011;38149;52.666;6.428;2023-04-06T11:53:48;0.20;;;0.20;;
52166;SDS011;38149;52.666;6.428;2023-04-06T11:56:28;0.20;;;0.20;;
52166;SDS011;38149;52.666;6.428;2023-04-06T11:58:55;0.10;;;0.10;;
52166;SDS011;38149;52.666;6.428;2023-04-06T12:01:22;0.20;;;0.20;;
52166;SDS011;38149;52.666;6.428;2023-04-06T12:03:49;0.20;;;0.20;;
52166;SDS011;38149;52.666;6.428;2023-04-06T12:06:16;0.20;;;0.20;;
52166;SDS011;38149;52.666;6.428;2023-04-06T12:08:42;0.20;;;0.20;;
52166;SDS011;38149;52.666;6.428;2023-04-06T12:11:09;0.10;;;0.10;;
52166;SDS011;38149;52.666;6.428;2023-04-06T12:13:36;0.10;;;0.10;;
52166;SDS011;38149;52.666;6.428;2023-04-06T12:16:02;0.10;;;0.10;;
52166;SDS011;38149;52.666;6.428;2023-04-06T12:18:29;0.20;;;0.20;;
52166;SDS011;38149;52.666;6.428;2023-04-06T12:20:55;0.20;;;0.20;;
52166;SDS011;38149;52.666;6.428;2023-04-06T12:23:21;0.10;;;0.10;;
52166;SDS011;38149;52.666;6.428;2023-04-06T12:25:47;0.10;;;0.10;;
52166;SDS011;38149;52.666;6.428;2023-04-06T12:28:13;0.13;;;0.13;;
52166;SDS011;38149;52.666;6.428;2023-04-06T12:30:40;0.20;;;0.20;;
52166;SDS011;38149;52.666;6.428;2023-04-06T12:33:06;0.17;;;0.17;;
52166;SDS011;38149;52.666;6.428;2023-04-06T12:35:33;0.20;;;0.20;;
52166;SDS011;38149;52.666;6.428;2023-04-06T12:38:00;0.10;;;0.10;;
52166;SDS011;38149;52.666;6.428;2023-04-06T12:40:26;0.10;;;0.10;;
52166;SDS011;38149;52.666;6.428;2023-04-06T12:42:52;0.10;;;0.10;;
52166;SDS011;38149;52.666;6.428;2023-04-06T12:45:18;0.20;;;0.20;;
52166;SDS011;38149;52.666;6.428;2023-04-06T12:47:44;0.10;;;0.10;;
52166;SDS011;38149;52.666;6.428;2023-04-06T12:50:11;0.10;;;0.10;;
52166;SDS011;38149;52.666;6.428;2023-04-06T12:52:37;0.13;;;0.13;;
52166;SDS011;38149;52.666;6.428;2023-04-06T12:55:03;0.20;;;0.20;;
52166;SDS011;38149;52.666;6.428;2023-04-06T12:57:30;0.10;;;0.10;;
52166;SDS011;38149;52.666;6.428;2023-04-06T12:59:57;0.10;;;0.10;;
52166;SDS011;38149;52.666;6.428;2023-04-06T13:02:23;0.10;;;0.10;;
52166;SDS011;38149;52.666;6.428;2023-04-06T13:04:49;0.10;;;0.10;;
52166;SDS011;38149;52.666;6.428;2023-04-06T13:07:15;0.20;;;0.20;;
52166;SDS011;38149;52.666;6.428;2023-04-06T13:09:41;0.10;;;0.10;;
52166;SDS011;38149;52.666;6.428;2023-04-06T13:12:08;0.20;;;0.20;;
52166;SDS011;38149;52.666;6.428;2023-04-06T13:14:34;0.20;;;0.20;;
52166;SDS011;38149;52.666;6.428;2023-04-06T13:17:00;0.15;;;0.15;;
52166;SDS011;38149;52.666;6.428;2023-04-06T13:19:27;0.13;;;0.13;;
52166;SDS011;38149;52.666;6.428;2023-04-06T13:21:53;0.20;;;0.20;;
52166;SDS011;38149;52.666;6.428;2023-04-06T13:24:19;0.20;;;0.20;;
52166;SDS011;38149;52.666;6.428;2023-04-06T13:26:46;0.20;;;0.20;;
52166;SDS011;38149;52.666;6.428;2023-04-06T13:29:12;0.20;;;0.20;;
52166;SDS011;38149;52.666;6.428;2023-04-06T13:31:38;0.20;;;0.20;;
52166;SDS011;38149;52.666;6.428;2023-04-06T13:34:05;0.10;;;0.10;;
52166;SDS011;38149;52.666;6.428;2023-04-06T13:36:31;0.20;;;0.20;;
52166;SDS011;38149;52.666;6.428;2023-04-06T13:38:57;0.10;;;0.10;;
52166;SDS011;38149;52.666;6.428;2023-04-06T13:41:24;0.10;;;0.10;;
52166;SDS011;38149;52.666;6.428;2023-04-06T13:43:51;0.20;;;0.20;;
52166;SDS011;38149;52.666;6.428;2023-04-06T13:46:17;0.10;;;0.10;;
52166;SDS011;38149;52.666;6.428;2023-04-06T13:48:44;0.10;;;0.10;;
52166;SDS011;38149;52.666;6.428;2023-04-06T13:51:10;0.10;;;0.10;;
52166;SDS011;38149;52.666;6.428;2023-04-06T13:53:37;0.10;;;0.10;;
52166;SDS011;38149;52.666;6.428;2023-04-06T13:56:04;0.20;;;0.20;;
52166;SDS011;38149;52.666;6.428;2023-04-06T13:58:30;0.10;;;0.10;;
52166;SDS011;38149;52.666;6.428;2023-04-06T14:01:06;0.20;;;0.20;;
52166;SDS011;38149;52.666;6.428;2023-04-06T14:03:34;0.10;;;0.10;;
52166;SDS011;38149;52.666;6.428;2023-04-06T14:06:01;0.10;;;0.10;;
52166;SDS011;38149;52.666;6.428;2023-04-06T14:08:34;0.10;;;0.10;;
52166;SDS011;38149;52.666;6.428;2023-04-06T14:11:00;0.10;;;0.10;;
52166;SDS011;38149;52.666;6.428;2023-04-06T14:13:26;0.20;;;0.20;;
52166;SDS011;38149;52.666;6.428;2023-04-06T14:15:53;0.10;;;0.10;;
52166;SDS011;38149;52.666;6.428;2023-04-06T14:18:22;0.10;;;0.10;;
52166;SDS011;38149;52.666;6.428;2023-04-06T14:20:55;0.20;;;0.20;;
52166;SDS011;38149;52.666;6.428;2023-04-06T14:23:22;0.20;;;0.20;;
52166;SDS011;38149;52.666;6.428;2023-04-06T14:25:51;0.10;;;0.10;;
52166;SDS011;38149;52.666;6.428;2023-04-06T14:28:27;0.10;;;0.10;;
52166;SDS011;38149;52.666;6.428;2023-04-06T14:30:53;0.10;;;0.10;;
52166;SDS011;38149;52.666;6.428;2023-04-06T14:33:19;0.10;;;0.10;;
52166;SDS011;38149;52.666;6.428;2023-04-06T14:35:45;0.20;;;0.20;;
52166;SDS011;38149;52.666;6.428;2023-04-06T14:38:11;0.17;;;0.17;;
52166;SDS011;38149;52.666;6.428;2023-04-06T14:40:37;0.10;;;0.10;;
52166;SDS011;38149;52.666;6.428;2023-04-06T14:43:04;0.10;;;0.10;;
52166;SDS011;38149;52.666;6.428;2023-04-06T14:45:32;0.20;;;0.20;;
52166;SDS011;38149;52.666;6.428;2023-04-06T14:47:59;0.10;;;0.10;;
52166;SDS011;38149;52.666;6.428;2023-04-06T14:50:26;0.20;;;0.20;;
52166;SDS011;38149;52.666;6.428;2023-04-06T14:52:52;0.20;;;0.20;;
52166;SDS011;38149;52.666;6.428;2023-04-06T14:55:18;0.10;;;0.10;;